createdAt,value
2019-02-23T00:01:16.792Z,41.90
2019-02-23T00:04:42.402Z,43.13
2019-02-23T00:08:08.118Z,49.70
2019-02-23T00:11:33.794Z,48.60
2019-02-23T00:14:59.479Z,48.67
2019-02-23T00:18:25.164Z,48.90
2019-02-23T00:21:50.764Z,45.63
2019-02-23T00:25:16.411Z,42.33
2019-02-23T00:28:42.053Z,51.73
2019-02-23T00:32:07.676Z,49.30
2019-02-23T00:35:33.753Z,46.83
2019-02-23T00:38:59.340Z,43.73
2019-02-23T00:42:25.287Z,47.57
2019-02-23T00:45:50.890Z,40.67
2019-02-23T00:49:17.147Z,43.80
2019-02-23T00:52:42.841Z,44.60
2019-02-23T00:56:08.493Z,39.53
2019-02-23T00:59:34.112Z,44.83
2019-02-23T01:02:59.706Z,40.97
2019-02-23T01:06:25.365Z,40.87
2019-02-23T01:09:51.319Z,51.63
2019-02-23T01:13:17.169Z,44.60
2019-02-23T01:16:43.100Z,49.80
2019-02-23T01:20:11.039Z,45.83
2019-02-23T01:23:36.685Z,46.93
2019-02-23T01:27:02.299Z,46.13
2019-02-23T01:30:27.930Z,43.23
2019-02-23T01:33:53.549Z,44.63
2019-02-23T01:37:19.206Z,43.53
2019-02-23T01:40:44.831Z,45.23
2019-02-23T01:44:10.451Z,45.20
2019-02-23T01:47:36.043Z,42.07
2019-02-23T01:51:01.644Z,42.90
2019-02-23T01:54:27.249Z,46.20
2019-02-23T01:57:52.901Z,45.20
2019-02-23T02:01:18.492Z,39.70
2019-02-23T02:04:44.150Z,40.07
2019-02-23T02:08:09.783Z,42.33
2019-02-23T02:11:35.520Z,45.80
2019-02-23T02:15:01.221Z,39.03
2019-02-23T02:18:27.044Z,37.20
2019-02-23T02:21:52.720Z,40.83
2019-02-23T02:25:18.716Z,39.87
2019-02-23T02:28:44.383Z,41.77
2019-02-23T02:32:10.025Z,41.40
2019-02-23T02:35:35.661Z,45.93
2019-02-23T02:39:01.281Z,41.93
2019-02-23T02:42:26.915Z,44.77
2019-02-23T02:45:52.605Z,47.23
2019-02-23T02:49:18.278Z,47.13
2019-02-23T02:52:43.946Z,45.73
2019-02-23T02:56:09.632Z,41.90
2019-02-23T02:59:35.267Z,41.10
2019-02-23T03:03:00.896Z,39.03
2019-02-23T03:06:26.927Z,39.20
2019-02-23T03:09:52.595Z,38.03
2019-02-23T03:13:18.189Z,38.80
2019-02-23T03:16:44.127Z,39.07
2019-02-23T03:20:10.554Z,42.13
2019-02-23T03:23:36.514Z,45.13
2019-02-23T03:27:02.129Z,36.90
2019-02-23T03:30:27.805Z,36.93
2019-02-23T03:33:53.411Z,34.50
2019-02-23T03:37:19.018Z,40.73
2019-02-23T03:40:44.658Z,37.60
2019-02-23T03:44:10.257Z,34.87
2019-02-23T03:47:35.889Z,39.00
2019-02-23T03:51:01.476Z,43.90
2019-02-23T03:54:27.103Z,37.30
2019-02-23T03:57:52.730Z,36.90
2019-02-23T04:01:18.381Z,33.40
2019-02-23T04:04:44.057Z,34.23
2019-02-23T04:08:09.811Z,29.97
2019-02-23T04:11:35.454Z,31.07
2019-02-23T04:15:01.689Z,31.60
2019-02-23T04:18:27.280Z,29.63
2019-02-23T04:21:52.934Z,26.17
2019-02-23T04:25:18.661Z,27.80
2019-02-23T04:28:44.293Z,25.73
2019-02-23T04:32:09.940Z,24.03
2019-02-23T04:35:35.900Z,27.23
2019-02-23T04:39:02.215Z,27.33
2019-02-23T04:42:27.873Z,27.80
2019-02-23T04:45:53.483Z,26.03
2019-02-23T04:49:19.161Z,24.77
2019-02-23T04:52:44.842Z,22.73
2019-02-23T04:56:10.453Z,27.07
2019-02-23T04:59:36.027Z,28.73
2019-02-23T05:03:01.672Z,29.50
2019-02-23T05:06:27.297Z,27.50
2019-02-23T05:09:52.898Z,30.27
2019-02-23T05:13:18.595Z,30.73
2019-02-23T05:16:44.218Z,27.00
2019-02-23T05:20:10.474Z,27.27
2019-02-23T05:23:36.077Z,27.40
2019-02-23T05:27:01.740Z,31.67
2019-02-23T05:30:31.560Z,31.87
2019-02-23T05:33:54.730Z,25.60
2019-02-23T05:37:20.347Z,29.83
2019-02-23T05:40:46.052Z,27.50
2019-02-23T05:44:11.700Z,31.20
2019-02-23T05:47:37.372Z,31.13
2019-02-23T05:51:03.041Z,28.23
2019-02-23T05:54:28.798Z,33.57
2019-02-23T05:57:54.438Z,28.37
2019-02-23T06:01:20.126Z,33.27
2019-02-23T06:04:48.130Z,32.33
2019-02-23T06:08:13.784Z,30.67
2019-02-23T06:11:39.342Z,34.23
2019-02-23T06:15:05.249Z,34.53
2019-02-23T06:18:31.117Z,36.00
2019-02-23T06:21:56.869Z,33.23
2019-02-23T06:25:22.934Z,28.77
2019-02-23T06:28:48.532Z,31.40
2019-02-23T06:32:14.228Z,29.43
2019-02-23T06:35:39.818Z,33.60
2019-02-23T06:39:06.444Z,28.97
2019-02-23T06:42:32.115Z,29.80
2019-02-23T06:45:57.825Z,31.67
2019-02-23T06:49:23.477Z,38.00
2019-02-23T06:52:49.163Z,34.10
2019-02-23T06:56:15.397Z,33.43
2019-02-23T06:59:41.165Z,32.37
2019-02-23T07:03:07.260Z,33.23
2019-02-23T07:06:34.018Z,35.87
2019-02-23T07:09:59.716Z,35.67
2019-02-23T07:13:25.367Z,31.47
2019-02-23T07:16:51.257Z,32.87
2019-02-23T07:20:43.728Z,31.90
2019-02-23T07:24:02.200Z,30.93
2019-02-23T07:27:27.842Z,31.80
2019-02-23T07:30:53.579Z,31.23
2019-02-23T07:34:28.015Z,29.33
2019-02-23T07:37:53.602Z,32.50
2019-02-23T07:41:19.400Z,25.23
2019-02-23T07:44:45.430Z,26.80
2019-02-23T07:48:12.452Z,25.97
2019-02-23T07:51:38.169Z,25.53
2019-02-23T07:55:03.686Z,26.57
2019-02-23T07:58:29.647Z,24.93
2019-02-23T08:01:55.286Z,28.73
2019-02-23T08:05:20.938Z,26.87
2019-02-23T08:08:46.675Z,27.63
2019-02-23T08:12:13.570Z,26.17
2019-02-23T08:15:39.555Z,25.37
2019-02-23T08:19:05.174Z,25.00
2019-02-23T08:22:37.427Z,21.53
2019-02-23T08:25:58.225Z,26.63
2019-02-23T08:29:23.859Z,23.20
2019-02-23T08:32:49.510Z,24.03
2019-02-23T08:36:15.331Z,21.50
2019-02-23T08:39:40.962Z,23.67
2019-02-23T08:43:06.663Z,23.20
2019-02-23T08:46:32.622Z,22.27
2019-02-23T08:49:58.338Z,26.23
2019-02-23T08:53:24.740Z,20.80
2019-02-23T08:56:50.397Z,21.30
2019-02-23T09:00:17.355Z,21.30
2019-02-23T09:03:43.129Z,19.27
2019-02-23T09:07:08.881Z,21.63
2019-02-23T09:10:34.558Z,21.57
2019-02-23T09:14:00.154Z,21.63
2019-02-23T09:17:25.856Z,21.83
2019-02-23T09:20:51.983Z,20.70
2019-02-23T09:24:17.933Z,19.70
2019-02-23T09:27:44.455Z,18.83
2019-02-23T09:31:10.144Z,22.57
2019-02-23T09:34:35.843Z,20.27
2019-02-23T09:38:03.265Z,21.50
2019-02-23T09:41:28.865Z,22.00
2019-02-23T09:44:54.607Z,21.07
2019-02-23T09:48:20.264Z,18.30
2019-02-23T09:51:45.998Z,17.17
2019-02-23T09:55:11.833Z,19.62
2019-02-23T09:58:37.445Z,17.82
2019-02-23T10:02:03.166Z,16.48
2019-02-23T10:05:29.080Z,16.90
2019-02-23T10:08:54.818Z,16.77
2019-02-23T10:12:20.557Z,16.55
2019-02-23T10:15:46.637Z,16.07
2019-02-23T10:19:12.551Z,15.28
2019-02-23T10:22:39.652Z,14.20
2019-02-23T10:26:06.010Z,14.40
2019-02-23T10:29:31.937Z,14.98
2019-02-23T10:32:57.745Z,15.85
2019-02-23T10:36:23.429Z,14.63
2019-02-23T10:39:49.020Z,13.40
2019-02-23T10:43:14.993Z,14.78
2019-02-23T10:46:39.957Z,15.68
2019-02-23T10:50:06.449Z,14.38
2019-02-23T10:53:33.066Z,15.30
2019-02-23T10:56:59.384Z,16.32
2019-02-23T11:00:25.825Z,15.70
2019-02-23T11:03:51.444Z,14.98
2019-02-23T11:07:17.374Z,14.40
2019-02-23T11:10:43.331Z,13.65
2019-02-23T11:14:09.034Z,14.23
2019-02-23T11:17:35.205Z,15.00
2019-02-23T11:21:00.946Z,13.50
2019-02-23T11:24:26.602Z,14.13
2019-02-23T11:27:53.498Z,14.43
2019-02-23T11:31:19.147Z,14.18
2019-02-23T11:34:44.860Z,14.68
2019-02-23T11:38:10.508Z,14.90
2019-02-23T11:41:36.122Z,11.95
2019-02-23T11:45:01.766Z,12.07
2019-02-23T11:48:27.464Z,17.32
2019-02-23T11:51:53.159Z,16.87
2019-02-23T11:55:19.695Z,14.70
2019-02-23T11:58:45.622Z,17.55
2019-02-23T12:02:11.245Z,18.45
2019-02-23T12:05:36.906Z,14.50
2019-02-23T12:09:02.814Z,17.57
2019-02-23T12:12:28.383Z,17.82
2019-02-23T12:15:54.046Z,18.17
2019-02-23T12:19:19.709Z,16.40
2019-02-23T12:22:45.386Z,16.35
2019-02-23T12:26:11.094Z,14.35
2019-02-23T12:29:36.735Z,11.75
2019-02-23T12:33:02.537Z,12.60
2019-02-23T12:36:28.446Z,18.23
2019-02-23T12:39:54.103Z,12.85
2019-02-23T12:43:19.755Z,11.08
2019-02-23T12:46:45.692Z,14.50
2019-02-23T12:50:11.450Z,177.47
2019-02-23T12:53:37.143Z,70.03
2019-02-23T12:57:02.749Z,23.62
2019-02-23T13:00:28.783Z,12.70
2019-02-23T13:03:54.448Z,13.85
2019-02-23T13:07:20.089Z,12.40
2019-02-23T13:10:46.274Z,12.33
2019-02-23T13:15:02.803Z,15.43
2019-02-23T13:19:30.789Z,13.93
2019-02-23T13:23:47.667Z,12.28
2019-02-23T13:28:02.523Z,11.90
2019-02-23T13:32:43.776Z,14.18
2019-02-23T13:37:45.827Z,11.60
2019-02-23T13:42:01.014Z,11.73
2019-02-23T13:46:08.357Z,11.28
2019-02-23T13:50:43.254Z,9.33
2019-02-23T13:55:13.842Z,10.75
2019-02-23T13:59:18.809Z,11.08
2019-02-23T14:03:27.531Z,9.95
2019-02-23T14:07:33.710Z,10.03
2019-02-23T14:12:11.974Z,10.18
2019-02-23T14:16:29.672Z,13.95
2019-02-23T14:20:26.553Z,10.45
2019-02-23T14:24:52.592Z,10.63
2019-02-23T14:29:34.573Z,8.68
2019-02-23T14:33:57.581Z,13.13
2019-02-23T14:38:20.123Z,9.18
2019-02-23T14:42:18.919Z,8.83
2019-02-23T14:46:54.554Z,8.05
2019-02-23T14:50:59.451Z,9.20
2019-02-23T14:55:04.347Z,9.88
2019-02-23T14:59:24.472Z,9.85
2019-02-23T15:04:00.466Z,8.35
2019-02-23T15:08:14.498Z,9.25
2019-02-23T15:16:17.496Z,8.98
2019-02-23T15:20:16.630Z,10.18
2019-02-23T15:24:36.239Z,9.53
2019-02-23T15:28:47.911Z,9.08
2019-02-23T15:33:14.957Z,8.03
2019-02-23T15:37:57.506Z,8.08
2019-02-23T15:42:18.916Z,9.63
2019-02-23T15:46:15.126Z,9.48
2019-02-23T15:49:40.793Z,7.83
2019-02-23T15:53:06.689Z,7.83
2019-02-23T15:56:32.458Z,8.75
2019-02-23T15:59:58.254Z,8.33
2019-02-23T16:03:23.855Z,10.25
2019-02-23T16:06:49.565Z,8.38
2019-02-23T16:10:17.769Z,7.50
2019-02-23T16:13:42.906Z,8.10
2019-02-23T16:17:08.556Z,7.97
2019-02-23T16:20:34.187Z,8.38
2019-02-23T16:24:01.822Z,8.43
2019-02-23T16:27:27.747Z,9.45
2019-02-23T16:30:53.437Z,8.43
2019-02-23T16:34:19.058Z,11.30
2019-02-23T16:37:44.757Z,11.15
2019-02-23T16:41:10.382Z,7.87
2019-02-23T16:44:36.038Z,9.70
2019-02-23T16:48:01.787Z,9.68
2019-02-23T16:51:27.432Z,8.10
2019-02-23T16:54:53.010Z,10.23
2019-02-23T16:58:18.737Z,9.10
2019-02-23T17:01:44.368Z,8.53
2019-02-23T17:05:10.412Z,9.55
2019-02-23T17:08:36.073Z,9.15
2019-02-23T17:12:02.013Z,8.58
2019-02-23T17:15:27.650Z,9.28
2019-02-23T17:18:53.339Z,7.70
2019-02-23T17:22:19.011Z,10.15
2019-02-23T17:25:44.627Z,11.35
2019-02-23T17:29:10.422Z,9.60
2019-02-23T17:32:36.108Z,8.58
2019-02-23T17:36:01.729Z,8.13
2019-02-23T17:39:27.426Z,10.83
2019-02-23T17:42:53.103Z,7.93
2019-02-23T17:46:19.110Z,9.47
2019-02-23T17:49:45.695Z,9.33
2019-02-23T17:53:11.492Z,11.03
2019-02-23T17:56:37.110Z,7.47
2019-02-23T18:00:02.817Z,8.80
2019-02-23T18:03:28.466Z,9.40
2019-02-23T18:06:54.055Z,7.90
2019-02-23T18:10:20.053Z,7.87
2019-02-23T18:13:45.682Z,9.63
2019-02-23T18:17:11.753Z,13.40
2019-02-23T18:20:37.417Z,30.60
2019-02-23T18:24:03.438Z,19.87
2019-02-23T18:27:29.115Z,14.00
2019-02-23T18:30:55.399Z,16.17
2019-02-23T18:34:21.405Z,20.50
2019-02-23T18:37:47.303Z,9.67
2019-02-23T18:41:12.983Z,37.53
2019-02-23T18:44:38.630Z,20.23
2019-02-23T18:48:04.238Z,10.73
2019-02-23T18:51:29.851Z,10.50
2019-02-23T18:54:55.725Z,9.10
2019-02-23T18:58:21.408Z,9.57
2019-02-23T19:01:47.047Z,12.37
2019-02-23T19:05:13.621Z,23.27
2019-02-23T19:08:39.261Z,9.97
2019-02-23T19:12:05.113Z,9.77
2019-02-23T19:15:30.831Z,11.23
2019-02-23T19:18:56.472Z,10.53
2019-02-23T19:22:22.101Z,9.70
2019-02-23T19:25:47.650Z,11.20
2019-02-23T19:29:16.420Z,11.67
2019-02-23T19:32:42.072Z,12.80
2019-02-23T19:36:07.756Z,11.23
2019-02-23T19:39:33.423Z,14.27
2019-02-23T19:42:59.015Z,12.30
2019-02-23T19:46:25.162Z,12.23
2019-02-23T19:49:53.814Z,11.20
2019-02-23T19:53:19.686Z,10.90
2019-02-23T19:56:47.046Z,11.30
2019-02-23T20:00:12.923Z,11.17
2019-02-23T20:03:38.542Z,11.53
2019-02-23T20:07:04.217Z,11.00
2019-02-23T20:10:29.837Z,12.07
2019-02-23T20:13:55.421Z,14.77
2019-02-23T20:17:21.028Z,13.47
2019-02-23T20:20:46.683Z,13.40
2019-02-23T20:24:12.360Z,12.50
2019-02-23T20:27:38.076Z,14.20
2019-02-23T20:31:03.678Z,15.70
2019-02-23T20:34:29.282Z,12.87
2019-02-23T20:37:55.234Z,13.70
2019-02-23T20:41:21.529Z,13.10
2019-02-23T20:44:47.191Z,13.60
2019-02-23T20:48:12.846Z,13.30
2019-02-23T20:51:38.563Z,13.30
2019-02-23T20:55:04.795Z,14.87
2019-02-23T20:58:30.489Z,21.63
2019-02-23T21:02:00.090Z,16.30
2019-02-23T21:05:26.078Z,16.23
2019-02-23T21:08:51.891Z,12.90
2019-02-23T21:12:17.692Z,19.17
2019-02-23T21:15:43.546Z,17.57
2019-02-23T21:19:09.458Z,15.53
2019-02-23T21:22:35.375Z,16.73
2019-02-23T21:26:01.384Z,19.10
2019-02-23T21:29:27.352Z,18.03
2019-02-23T21:32:52.974Z,30.50
2019-02-23T21:36:20.416Z,23.70
2019-02-23T21:39:46.163Z,31.30
2019-02-23T21:43:13.519Z,21.97
2019-02-23T21:46:39.775Z,20.23
2019-02-23T21:50:05.638Z,27.30
2019-02-23T21:53:32.193Z,17.63
2019-02-23T21:56:59.607Z,23.10
2019-02-23T22:00:25.270Z,23.27
2019-02-23T22:03:51.231Z,23.87
2019-02-23T22:07:16.919Z,27.10
2019-02-23T22:10:45.615Z,20.47
2019-02-23T22:14:11.832Z,18.20
2019-02-23T22:17:37.681Z,17.50
2019-02-23T22:21:03.814Z,19.37
2019-02-23T22:24:29.935Z,17.53
2019-02-23T22:27:57.125Z,16.50
2019-02-23T22:31:22.969Z,19.70
2019-02-23T22:34:48.679Z,20.87
2019-02-23T22:38:14.258Z,19.10
2019-02-23T22:41:39.978Z,22.10
2019-02-23T22:45:08.145Z,17.80
2019-02-23T22:48:33.957Z,15.57
2019-02-23T22:51:59.540Z,17.00
2019-02-23T22:55:25.352Z,20.30
2019-02-23T22:58:51.177Z,18.67
2019-02-23T23:02:17.192Z,18.73
2019-02-23T23:05:43.125Z,17.43
2019-02-23T23:09:14.963Z,17.63
2019-02-23T23:12:42.506Z,22.70
2019-02-23T23:16:08.398Z,19.23
2019-02-23T23:19:34.264Z,20.67
2019-02-23T23:23:00.073Z,18.93
2019-02-23T23:26:25.725Z,18.13
2019-02-23T23:29:51.628Z,17.73
2019-02-23T23:33:18.132Z,19.60
2019-02-23T23:36:44.096Z,21.13
2019-02-23T23:40:09.854Z,22.07
2019-02-23T23:43:35.776Z,24.90
2019-02-23T23:47:01.485Z,27.20
2019-02-23T23:50:27.490Z,26.23
2019-02-23T23:53:53.141Z,24.63
2019-02-23T23:57:18.754Z,20.13
